sensor_id;sensor_type;location;lat;lon;timestamp;P1;durP1;ratioP1;P2;durP2;ratioP2
20824;SDS011;10573;50.936;6.978;2023-08-17T00:01:19;14.83;;;7.20;;
20824;SDS011;10573;50.936;6.978;2023-08-17T00:03:44;10.00;;;7.03;;
20824;SDS011;10573;50.936;6.978;2023-08-17T00:06:10;11.35;;;7.78;;
20824;SDS011;10573;50.936;6.978;2023-08-17T00:08:35;14.10;;;8.10;;
20824;SDS011;10573;50.936;6.978;2023-08-17T00:11:01;14.87;;;7.07;;
20824;SDS011;10573;50.936;6.978;2023-08-17T00:13:26;9.77;;;5.80;;
20824;SDS011;10573;50.936;6.978;2023-08-17T00:15:52;9.83;;;5.90;;
20824;SDS011;10573;50.936;6.978;2023-08-17T00:18:17;11.30;;;5.77;;
20824;SDS011;10573;50.936;6.978;2023-08-17T00:20:42;8.80;;;5.47;;
20824;SDS011;10573;50.936;6.978;2023-08-17T00:23:09;8.73;;;6.10;;
20824;SDS011;10573;50.936;6.978;2023-08-17T00:25:34;8.63;;;5.70;;
20824;SDS011;10573;50.936;6.978;2023-08-17T00:28:00;12.35;;;6.70;;
20824;SDS011;10573;50.936;6.978;2023-08-17T00:30:25;8.47;;;5.30;;
20824;SDS011;10573;50.936;6.978;2023-08-17T00:32:50;10.77;;;6.57;;
20824;SDS011;10573;50.936;6.978;2023-08-17T00:35:16;11.40;;;6.38;;
20824;SDS011;10573;50.936;6.978;2023-08-17T00:37:41;11.43;;;6.90;;
20824;SDS011;10573;50.936;6.978;2023-08-17T00:40:07;11.87;;;6.27;;
20824;SDS011;10573;50.936;6.978;2023-08-17T00:42:32;10.80;;;6.68;;
20824;SDS011;10573;50.936;6.978;2023-08-17T00:44:58;10.73;;;5.67;;
20824;SDS011;10573;50.936;6.978;2023-08-17T00:47:23;9.38;;;6.28;;
20824;SDS011;10573;50.936;6.978;2023-08-17T00:49:49;9.32;;;6.00;;
20824;SDS011;10573;50.936;6.978;2023-08-17T00:52:15;9.17;;;5.80;;
20824;SDS011;10573;50.936;6.978;2023-08-17T00:54:40;11.13;;;6.43;;
20824;SDS011;10573;50.936;6.978;2023-08-17T00:57:07;7.65;;;5.88;;
20824;SDS011;10573;50.936;6.978;2023-08-17T00:59:34;12.15;;;6.35;;
20824;SDS011;10573;50.936;6.978;2023-08-17T01:02:00;10.23;;;6.22;;
20824;SDS011;10573;50.936;6.978;2023-08-17T01:04:26;10.77;;;5.78;;
20824;SDS011;10573;50.936;6.978;2023-08-17T01:06:52;11.43;;;6.00;;
20824;SDS011;10573;50.936;6.978;2023-08-17T01:09:17;11.03;;;6.17;;
20824;SDS011;10573;50.936;6.978;2023-08-17T01:11:53;9.93;;;5.33;;
20824;SDS011;10573;50.936;6.978;2023-08-17T01:17:27;8.40;;;5.20;;
20824;SDS011;10573;50.936;6.978;2023-08-17T01:19:57;8.57;;;5.70;;
20824;SDS011;10573;50.936;6.978;2023-08-17T01:22:23;9.50;;;5.63;;
20824;SDS011;10573;50.936;6.978;2023-08-17T01:24:54;9.05;;;5.75;;
20824;SDS011;10573;50.936;6.978;2023-08-17T01:27:22;8.60;;;5.67;;
20824;SDS011;10573;50.936;6.978;2023-08-17T01:29:49;10.43;;;5.28;;
20824;SDS011;10573;50.936;6.978;2023-08-17T01:32:20;8.80;;;5.60;;
20824;SDS011;10573;50.936;6.978;2023-08-17T01:34:54;8.38;;;5.68;;
20824;SDS011;10573;50.936;6.978;2023-08-17T01:37:23;8.55;;;5.38;;
20824;SDS011;10573;50.936;6.978;2023-08-17T01:39:54;8.00;;;5.20;;
20824;SDS011;10573;50.936;6.978;2023-08-17T01:42:21;6.80;;;5.03;;
20824;SDS011;10573;50.936;6.978;2023-08-17T01:44:48;8.13;;;5.05;;
20824;SDS011;10573;50.936;6.978;2023-08-17T01:47:14;9.00;;;5.20;;
20824;SDS011;10573;50.936;6.978;2023-08-17T01:49:39;7.63;;;5.07;;
20824;SDS011;10573;50.936;6.978;2023-08-17T01:52:05;5.65;;;4.78;;
20824;SDS011;10573;50.936;6.978;2023-08-17T01:54:30;6.13;;;4.70;;
20824;SDS011;10573;50.936;6.978;2023-08-17T01:56:56;8.57;;;4.60;;
20824;SDS011;10573;50.936;6.978;2023-08-17T01:59:21;7.57;;;4.40;;
20824;SDS011;10573;50.936;6.978;2023-08-17T02:01:46;7.67;;;4.53;;
20824;SDS011;10573;50.936;6.978;2023-08-17T02:04:12;7.67;;;4.53;;
20824;SDS011;10573;50.936;6.978;2023-08-17T02:06:37;9.02;;;4.75;;
20824;SDS011;10573;50.936;6.978;2023-08-17T02:09:03;7.47;;;4.57;;
20824;SDS011;10573;50.936;6.978;2023-08-17T02:11:28;7.43;;;4.10;;
20824;SDS011;10573;50.936;6.978;2023-08-17T02:13:53;5.60;;;4.28;;
20824;SDS011;10573;50.936;6.978;2023-08-17T02:16:19;7.87;;;4.17;;
20824;SDS011;10573;50.936;6.978;2023-08-17T02:18:44;7.20;;;4.07;;
20824;SDS011;10573;50.936;6.978;2023-08-17T02:21:09;5.00;;;4.40;;
20824;SDS011;10573;50.936;6.978;2023-08-17T02:23:35;7.45;;;4.32;;
20824;SDS011;10573;50.936;6.978;2023-08-17T02:26:00;5.67;;;4.13;;
20824;SDS011;10573;50.936;6.978;2023-08-17T02:28:26;7.40;;;4.30;;
20824;SDS011;10573;50.936;6.978;2023-08-17T02:30:55;11.55;;;4.68;;
20824;SDS011;10573;50.936;6.978;2023-08-17T02:33:21;6.30;;;4.28;;
20824;SDS011;10573;50.936;6.978;2023-08-17T02:35:50;9.30;;;4.45;;
20824;SDS011;10573;50.936;6.978;2023-08-17T02:38:16;6.88;;;4.28;;
20824;SDS011;10573;50.936;6.978;2023-08-17T02:40:42;6.40;;;4.28;;
20824;SDS011;10573;50.936;6.978;2023-08-17T02:43:07;7.83;;;4.53;;
20824;SDS011;10573;50.936;6.978;2023-08-17T02:45:33;5.37;;;4.13;;
20824;SDS011;10573;50.936;6.978;2023-08-17T02:47:59;6.28;;;4.10;;
20824;SDS011;10573;50.936;6.978;2023-08-17T02:50:24;5.23;;;4.50;;
20824;SDS011;10573;50.936;6.978;2023-08-17T02:52:49;6.67;;;4.23;;
20824;SDS011;10573;50.936;6.978;2023-08-17T02:55:15;8.03;;;4.53;;
20824;SDS011;10573;50.936;6.978;2023-08-17T02:57:40;6.77;;;4.83;;
20824;SDS011;10573;50.936;6.978;2023-08-17T03:00:06;7.67;;;4.73;;
20824;SDS011;10573;50.936;6.978;2023-08-17T03:02:32;7.57;;;4.80;;
20824;SDS011;10573;50.936;6.978;2023-08-17T03:04:57;6.33;;;4.37;;
20824;SDS011;10573;50.936;6.978;2023-08-17T03:07:22;8.90;;;4.88;;
20824;SDS011;10573;50.936;6.978;2023-08-17T03:09:48;6.33;;;4.60;;
20824;SDS011;10573;50.936;6.978;2023-08-17T03:12:13;5.60;;;4.50;;
20824;SDS011;10573;50.936;6.978;2023-08-17T03:14:39;7.93;;;5.85;;
20824;SDS011;10573;50.936;6.978;2023-08-17T03:17:04;6.10;;;5.00;;
20824;SDS011;10573;50.936;6.978;2023-08-17T03:19:29;8.07;;;6.07;;
20824;SDS011;10573;50.936;6.978;2023-08-17T03:21:55;5.37;;;4.50;;
20824;SDS011;10573;50.936;6.978;2023-08-17T03:24:20;9.80;;;5.07;;
20824;SDS011;10573;50.936;6.978;2023-08-17T03:26:45;8.90;;;4.70;;
20824;SDS011;10573;50.936;6.978;2023-08-17T03:29:11;4.70;;;3.90;;
20824;SDS011;10573;50.936;6.978;2023-08-17T03:31:36;4.53;;;3.73;;
20824;SDS011;10573;50.936;6.978;2023-08-17T03:34:02;8.35;;;4.15;;
20824;SDS011;10573;50.936;6.978;2023-08-17T03:36:27;5.23;;;4.20;;
20824;SDS011;10573;50.936;6.978;2023-08-17T03:38:53;5.97;;;4.70;;
20824;SDS011;10573;50.936;6.978;2023-08-17T03:41:18;6.13;;;4.57;;
20824;SDS011;10573;50.936;6.978;2023-08-17T03:43:44;6.47;;;4.73;;
20824;SDS011;10573;50.936;6.978;2023-08-17T03:46:09;7.68;;;5.43;;
20824;SDS011;10573;50.936;6.978;2023-08-17T03:48:34;5.60;;;4.87;;
20824;SDS011;10573;50.936;6.978;2023-08-17T03:51:00;6.53;;;4.60;;
20824;SDS011;10573;50.936;6.978;2023-08-17T03:53:26;9.57;;;4.50;;
20824;SDS011;10573;50.936;6.978;2023-08-17T03:55:52;7.97;;;4.30;;
20824;SDS011;10573;50.936;6.978;2023-08-17T03:58:17;7.63;;;4.20;;
20824;SDS011;10573;50.936;6.978;2023-08-17T04:00:50;4.95;;;4.43;;
20824;SDS011;10573;50.936;6.978;2023-08-17T04:03:16;4.45;;;4.07;;
20824;SDS011;10573;50.936;6.978;2023-08-17T04:05:42;6.10;;;4.40;;
20824;SDS011;10573;50.936;6.978;2023-08-17T04:08:08;5.13;;;4.37;;
20824;SDS011;10573;50.936;6.978;2023-08-17T04:10:33;5.45;;;3.90;;
20824;SDS011;10573;50.936;6.978;2023-08-17T04:12:59;5.97;;;4.33;;
20824;SDS011;10573;50.936;6.978;2023-08-17T04:15:24;5.68;;;4.28;;
20824;SDS011;10573;50.936;6.978;2023-08-17T04:17:50;7.57;;;5.10;;
20824;SDS011;10573;50.936;6.978;2023-08-17T04:20:15;7.87;;;4.80;;
20824;SDS011;10573;50.936;6.978;2023-08-17T04:22:41;7.17;;;4.43;;
20824;SDS011;10573;50.936;6.978;2023-08-17T04:25:06;5.63;;;4.30;;
20824;SDS011;10573;50.936;6.978;2023-08-17T04:27:32;7.53;;;5.30;;
20824;SDS011;10573;50.936;6.978;2023-08-17T04:29:58;5.53;;;4.82;;
20824;SDS011;10573;50.936;6.978;2023-08-17T04:32:23;6.50;;;5.07;;
20824;SDS011;10573;50.936;6.978;2023-08-17T04:34:49;5.57;;;5.00;;
20824;SDS011;10573;50.936;6.978;2023-08-17T04:37:14;7.83;;;4.77;;
20824;SDS011;10573;50.936;6.978;2023-08-17T04:39:40;6.57;;;4.88;;
20824;SDS011;10573;50.936;6.978;2023-08-17T04:42:06;5.95;;;4.95;;
20824;SDS011;10573;50.936;6.978;2023-08-17T04:44:31;8.60;;;5.47;;
20824;SDS011;10573;50.936;6.978;2023-08-17T04:46:57;9.25;;;5.97;;
20824;SDS011;10573;50.936;6.978;2023-08-17T04:49:22;9.37;;;6.17;;
20824;SDS011;10573;50.936;6.978;2023-08-17T04:51:48;7.63;;;6.50;;
20824;SDS011;10573;50.936;6.978;2023-08-17T04:54:13;7.28;;;6.57;;
20824;SDS011;10573;50.936;6.978;2023-08-17T04:56:39;9.83;;;6.47;;
20824;SDS011;10573;50.936;6.978;2023-08-17T04:59:04;8.33;;;6.13;;
20824;SDS011;10573;50.936;6.978;2023-08-17T05:01:29;7.20;;;6.50;;
20824;SDS011;10573;50.936;6.978;2023-08-17T05:03:55;11.30;;;7.30;;
20824;SDS011;10573;50.936;6.978;2023-08-17T05:06:20;8.40;;;6.77;;
20824;SDS011;10573;50.936;6.978;2023-08-17T05:08:46;12.05;;;7.03;;
20824;SDS011;10573;50.936;6.978;2023-08-17T05:11:11;8.27;;;6.30;;
20824;SDS011;10573;50.936;6.978;2023-08-17T05:13:37;10.07;;;6.20;;
20824;SDS011;10573;50.936;6.978;2023-08-17T05:16:03;9.93;;;6.13;;
20824;SDS011;10573;50.936;6.978;2023-08-17T05:18:28;6.43;;;5.40;;
20824;SDS011;10573;50.936;6.978;2023-08-17T05:20:54;7.00;;;5.25;;
20824;SDS011;10573;50.936;6.978;2023-08-17T05:23:19;18.80;;;12.00;;
20824;SDS011;10573;50.936;6.978;2023-08-17T05:25:48;7.20;;;5.63;;
20824;SDS011;10573;50.936;6.978;2023-08-17T05:28:13;10.18;;;5.82;;
20824;SDS011;10573;50.936;6.978;2023-08-17T05:30:39;8.67;;;5.40;;
20824;SDS011;10573;50.936;6.978;2023-08-17T05:33:04;5.68;;;4.80;;
20824;SDS011;10573;50.936;6.978;2023-08-17T05:35:30;8.63;;;5.90;;
20824;SDS011;10573;50.936;6.978;2023-08-17T05:37:57;6.57;;;5.05;;
20824;SDS011;10573;50.936;6.978;2023-08-17T05:40:22;8.50;;;5.30;;
20824;SDS011;10573;50.936;6.978;2023-08-17T05:42:47;8.48;;;5.70;;
20824;SDS011;10573;50.936;6.978;2023-08-17T05:45:13;7.57;;;5.80;;
20824;SDS011;10573;50.936;6.978;2023-08-17T05:47:38;7.37;;;5.57;;
20824;SDS011;10573;50.936;6.978;2023-08-17T05:50:04;13.40;;;9.77;;
20824;SDS011;10573;50.936;6.978;2023-08-17T05:52:31;8.40;;;7.68;;
20824;SDS011;10573;50.936;6.978;2023-08-17T05:54:56;9.25;;;6.10;;
20824;SDS011;10573;50.936;6.978;2023-08-17T05:57:22;8.70;;;6.97;;
20824;SDS011;10573;50.936;6.978;2023-08-17T05:59:47;7.10;;;6.40;;
20824;SDS011;10573;50.936;6.978;2023-08-17T06:02:13;8.30;;;7.07;;
20824;SDS011;10573;50.936;6.978;2023-08-17T06:04:38;10.30;;;7.07;;
20824;SDS011;10573;50.936;6.978;2023-08-17T06:07:03;11.17;;;8.13;;
20824;SDS011;10573;50.936;6.978;2023-08-17T06:09:29;17.50;;;11.93;;
20824;SDS011;10573;50.936;6.978;2023-08-17T06:11:54;8.82;;;7.72;;
20824;SDS011;10573;50.936;6.978;2023-08-17T06:14:20;9.17;;;7.63;;
20824;SDS011;10573;50.936;6.978;2023-08-17T06:16:45;8.73;;;7.87;;
20824;SDS011;10573;50.936;6.978;2023-08-17T06:19:10;9.55;;;8.13;;
20824;SDS011;10573;50.936;6.978;2023-08-17T06:21:36;10.90;;;8.43;;
20824;SDS011;10573;50.936;6.978;2023-08-17T06:24:01;12.00;;;8.50;;
20824;SDS011;10573;50.936;6.978;2023-08-17T06:26:27;10.48;;;9.38;;
20824;SDS011;10573;50.936;6.978;2023-08-17T06:28:52;10.97;;;8.27;;
20824;SDS011;10573;50.936;6.978;2023-08-17T06:31:18;9.67;;;8.10;;
20824;SDS011;10573;50.936;6.978;2023-08-17T06:33:43;9.17;;;7.90;;
20824;SDS011;10573;50.936;6.978;2023-08-17T06:36:08;9.33;;;8.20;;
20824;SDS011;10573;50.936;6.978;2023-08-17T06:38:34;9.93;;;7.97;;
20824;SDS011;10573;50.936;6.978;2023-08-17T06:40:59;9.20;;;7.68;;
20824;SDS011;10573;50.936;6.978;2023-08-17T06:43:25;10.33;;;8.83;;
20824;SDS011;10573;50.936;6.978;2023-08-17T06:45:50;10.27;;;8.30;;
20824;SDS011;10573;50.936;6.978;2023-08-17T06:48:15;9.82;;;8.55;;
20824;SDS011;10573;50.936;6.978;2023-08-17T06:50:41;11.07;;;8.37;;
20824;SDS011;10573;50.936;6.978;2023-08-17T06:53:06;11.00;;;8.47;;
20824;SDS011;10573;50.936;6.978;2023-08-17T06:55:32;12.20;;;8.73;;
20824;SDS011;10573;50.936;6.978;2023-08-17T06:57:57;11.67;;;9.13;;
20824;SDS011;10573;50.936;6.978;2023-08-17T07:00:23;10.37;;;8.00;;
20824;SDS011;10573;50.936;6.978;2023-08-17T07:02:48;9.27;;;7.57;;
20824;SDS011;10573;50.936;6.978;2023-08-17T07:05:17;10.23;;;7.90;;
20824;SDS011;10573;50.936;6.978;2023-08-17T07:07:43;9.87;;;8.40;;
20824;SDS011;10573;50.936;6.978;2023-08-17T07:10:09;11.87;;;7.53;;
20824;SDS011;10573;50.936;6.978;2023-08-17T07:12:38;12.02;;;8.02;;
20824;SDS011;10573;50.936;6.978;2023-08-17T07:15:04;12.65;;;8.52;;
20824;SDS011;10573;50.936;6.978;2023-08-17T07:17:30;11.35;;;8.48;;
20824;SDS011;10573;50.936;6.978;2023-08-17T07:19:55;12.97;;;8.47;;
20824;SDS011;10573;50.936;6.978;2023-08-17T07:22:21;12.90;;;7.60;;
20824;SDS011;10573;50.936;6.978;2023-08-17T07:24:46;12.00;;;7.87;;
20824;SDS011;10573;50.936;6.978;2023-08-17T07:27:12;21.83;;;14.65;;
20824;SDS011;10573;50.936;6.978;2023-08-17T07:29:37;10.37;;;8.13;;
20824;SDS011;10573;50.936;6.978;2023-08-17T07:32:03;20.43;;;14.07;;
20824;SDS011;10573;50.936;6.978;2023-08-17T07:34:28;13.32;;;8.43;;
20824;SDS011;10573;50.936;6.978;2023-08-17T07:36:56;14.95;;;10.80;;
20824;SDS011;10573;50.936;6.978;2023-08-17T07:39:21;12.80;;;8.50;;
20824;SDS011;10573;50.936;6.978;2023-08-17T07:41:46;11.23;;;7.40;;
20824;SDS011;10573;50.936;6.978;2023-08-17T07:44:12;12.67;;;8.23;;
20824;SDS011;10573;50.936;6.978;2023-08-17T07:46:37;10.93;;;7.30;;
20824;SDS011;10573;50.936;6.978;2023-08-17T07:49:03;12.10;;;8.52;;
20824;SDS011;10573;50.936;6.978;2023-08-17T07:51:28;10.80;;;8.10;;
20824;SDS011;10573;50.936;6.978;2023-08-17T07:53:57;10.77;;;8.18;;
20824;SDS011;10573;50.936;6.978;2023-08-17T07:56:22;11.85;;;7.97;;
20824;SDS011;10573;50.936;6.978;2023-08-17T07:58:48;15.17;;;7.43;;
20824;SDS011;10573;50.936;6.978;2023-08-17T08:01:14;16.15;;;8.55;;
20824;SDS011;10573;50.936;6.978;2023-08-17T08:03:39;11.20;;;7.97;;
20824;SDS011;10573;50.936;6.978;2023-08-17T08:06:05;14.90;;;8.93;;
20824;SDS011;10573;50.936;6.978;2023-08-17T08:08:30;13.07;;;8.30;;
20824;SDS011;10573;50.936;6.978;2023-08-17T08:10:55;21.97;;;12.77;;
20824;SDS011;10573;50.936;6.978;2023-08-17T08:13:21;16.83;;;11.27;;
20824;SDS011;10573;50.936;6.978;2023-08-17T08:15:46;19.73;;;10.05;;
20824;SDS011;10573;50.936;6.978;2023-08-17T08:18:11;14.03;;;9.20;;
20824;SDS011;10573;50.936;6.978;2023-08-17T08:20:37;13.40;;;9.50;;
20824;SDS011;10573;50.936;6.978;2023-08-17T08:23:03;15.73;;;9.50;;
20824;SDS011;10573;50.936;6.978;2023-08-17T08:25:28;17.80;;;10.45;;
20824;SDS011;10573;50.936;6.978;2023-08-17T08:27:54;16.77;;;10.73;;
20824;SDS011;10573;50.936;6.978;2023-08-17T08:30:19;18.40;;;10.70;;
20824;SDS011;10573;50.936;6.978;2023-08-17T08:32:45;15.70;;;10.60;;
20824;SDS011;10573;50.936;6.978;2023-08-17T08:35:10;17.70;;;10.20;;
20824;SDS011;10573;50.936;6.978;2023-08-17T08:37:35;14.87;;;10.10;;
20824;SDS011;10573;50.936;6.978;2023-08-17T08:40:01;16.90;;;10.53;;
20824;SDS011;10573;50.936;6.978;2023-08-17T08:42:26;14.48;;;9.45;;
20824;SDS011;10573;50.936;6.978;2023-08-17T08:44:52;19.10;;;9.47;;
20824;SDS011;10573;50.936;6.978;2023-08-17T08:47:18;17.25;;;9.15;;
20824;SDS011;10573;50.936;6.978;2023-08-17T08:49:57;19.53;;;8.73;;
20824;SDS011;10573;50.936;6.978;2023-08-17T08:52:34;14.15;;;8.70;;
20824;SDS011;10573;50.936;6.978;2023-08-17T08:55:21;13.98;;;9.20;;
20824;SDS011;10573;50.936;6.978;2023-08-17T08:57:48;13.55;;;9.13;;
20824;SDS011;10573;50.936;6.978;2023-08-17T09:00:15;15.32;;;9.75;;
20824;SDS011;10573;50.936;6.978;2023-08-17T09:02:42;17.30;;;10.18;;
20824;SDS011;10573;50.936;6.978;2023-08-17T09:05:09;17.27;;;9.57;;
20824;SDS011;10573;50.936;6.978;2023-08-17T09:07:35;19.88;;;10.27;;
20824;SDS011;10573;50.936;6.978;2023-08-17T09:10:02;20.20;;;11.05;;
20824;SDS011;10573;50.936;6.978;2023-08-17T09:12:29;15.40;;;9.57;;
20824;SDS011;10573;50.936;6.978;2023-08-17T09:14:54;17.95;;;10.95;;
20824;SDS011;10573;50.936;6.978;2023-08-17T09:17:23;15.23;;;10.03;;
20824;SDS011;10573;50.936;6.978;2023-08-17T09:19:49;15.73;;;10.93;;
20824;SDS011;10573;50.936;6.978;2023-08-17T09:22:21;21.02;;;13.55;;
20824;SDS011;10573;50.936;6.978;2023-08-17T09:24:50;24.33;;;12.93;;
20824;SDS011;10573;50.936;6.978;2023-08-17T09:27:16;22.40;;;13.73;;
20824;SDS011;10573;50.936;6.978;2023-08-17T09:29:45;18.20;;;12.02;;
20824;SDS011;10573;50.936;6.978;2023-08-17T09:32:16;19.50;;;12.10;;
20824;SDS011;10573;50.936;6.978;2023-08-17T09:34:42;21.98;;;12.75;;
20824;SDS011;10573;50.936;6.978;2023-08-17T09:37:08;20.15;;;12.02;;
20824;SDS011;10573;50.936;6.978;2023-08-17T09:39:37;26.20;;;14.90;;
20824;SDS011;10573;50.936;6.978;2023-08-17T09:42:02;20.30;;;12.63;;
20824;SDS011;10573;50.936;6.978;2023-08-17T09:44:28;23.87;;;12.93;;
20824;SDS011;10573;50.936;6.978;2023-08-17T09:46:56;20.90;;;12.53;;
20824;SDS011;10573;50.936;6.978;2023-08-17T09:49:23;22.65;;;12.25;;
20824;SDS011;10573;50.936;6.978;2023-08-17T09:51:49;25.60;;;13.55;;
20824;SDS011;10573;50.936;6.978;2023-08-17T09:54:21;24.00;;;15.20;;
20824;SDS011;10573;50.936;6.978;2023-08-17T09:56:53;24.17;;;14.18;;
20824;SDS011;10573;50.936;6.978;2023-08-17T09:59:19;21.50;;;13.77;;
20824;SDS011;10573;50.936;6.978;2023-08-17T10:01:48;20.08;;;14.43;;
20824;SDS011;10573;50.936;6.978;2023-08-17T10:04:15;21.88;;;15.05;;
20824;SDS011;10573;50.936;6.978;2023-08-17T10:06:45;20.25;;;13.25;;
20824;SDS011;10573;50.936;6.978;2023-08-17T10:09:16;21.50;;;14.13;;
20824;SDS011;10573;50.936;6.978;2023-08-17T10:11:48;21.27;;;12.93;;
20824;SDS011;10573;50.936;6.978;2023-08-17T10:14:18;21.52;;;12.23;;
20824;SDS011;10573;50.936;6.978;2023-08-17T10:16:54;21.65;;;12.75;;
20824;SDS011;10573;50.936;6.978;2023-08-17T10:19:29;18.65;;;11.13;;
20824;SDS011;10573;50.936;6.978;2023-08-17T10:24:40;20.05;;;12.93;;
20824;SDS011;10573;50.936;6.978;2023-08-17T10:27:07;22.63;;;12.50;;
20824;SDS011;10573;50.936;6.978;2023-08-17T10:29:35;20.38;;;12.85;;
20824;SDS011;10573;50.936;6.978;2023-08-17T10:32:06;20.88;;;12.80;;
20824;SDS011;10573;50.936;6.978;2023-08-17T10:34:33;19.75;;;12.18;;
20824;SDS011;10573;50.936;6.978;2023-08-17T10:36:59;15.20;;;9.90;;
20824;SDS011;10573;50.936;6.978;2023-08-17T10:39:26;16.52;;;10.25;;
20824;SDS011;10573;50.936;6.978;2023-08-17T10:41:53;16.20;;;9.82;;
20824;SDS011;10573;50.936;6.978;2023-08-17T10:49:56;16.20;;;11.05;;
20824;SDS011;10573;50.936;6.978;2023-08-17T10:52:33;14.98;;;10.68;;
20824;SDS011;10573;50.936;6.978;2023-08-17T10:55:01;48.05;;;32.38;;
20824;SDS011;10573;50.936;6.978;2023-08-17T10:57:34;20.13;;;11.43;;
20824;SDS011;10573;50.936;6.978;2023-08-17T11:00:20;14.07;;;9.65;;
20824;SDS011;10573;50.936;6.978;2023-08-17T11:02:53;16.70;;;9.95;;
20824;SDS011;10573;50.936;6.978;2023-08-17T11:05:36;12.35;;;9.57;;
20824;SDS011;10573;50.936;6.978;2023-08-17T11:13:27;15.43;;;10.93;;
20824;SDS011;10573;50.936;6.978;2023-08-17T11:15:54;16.33;;;11.23;;
20824;SDS011;10573;50.936;6.978;2023-08-17T11:18:20;14.50;;;10.10;;
20824;SDS011;10573;50.936;6.978;2023-08-17T11:20:45;14.63;;;9.50;;
20824;SDS011;10573;50.936;6.978;2023-08-17T11:23:13;13.38;;;9.25;;
20824;SDS011;10573;50.936;6.978;2023-08-17T11:25:38;11.60;;;8.27;;
20824;SDS011;10573;50.936;6.978;2023-08-17T11:28:06;11.67;;;7.70;;
20824;SDS011;10573;50.936;6.978;2023-08-17T11:30:32;10.85;;;6.82;;
20824;SDS011;10573;50.936;6.978;2023-08-17T11:32:59;11.38;;;6.72;;
20824;SDS011;10573;50.936;6.978;2023-08-17T11:35:25;10.57;;;6.83;;
20824;SDS011;10573;50.936;6.978;2023-08-17T11:37:51;10.30;;;7.05;;
20824;SDS011;10573;50.936;6.978;2023-08-17T11:40:16;7.45;;;6.30;;
20824;SDS011;10573;50.936;6.978;2023-08-17T11:42:42;8.17;;;6.27;;
20824;SDS011;10573;50.936;6.978;2023-08-17T11:45:08;8.00;;;7.17;;
20824;SDS011;10573;50.936;6.978;2023-08-17T11:47:35;7.22;;;6.40;;
20824;SDS011;10573;50.936;6.978;2023-08-17T11:50:04;11.02;;;6.00;;
20824;SDS011;10573;50.936;6.978;2023-08-17T11:52:34;8.63;;;6.57;;
20824;SDS011;10573;50.936;6.978;2023-08-17T11:55:03;9.50;;;7.30;;
20824;SDS011;10573;50.936;6.978;2023-08-17T11:57:34;9.63;;;7.55;;
20824;SDS011;10573;50.936;6.978;2023-08-17T12:00:01;14.50;;;8.13;;
20824;SDS011;10573;50.936;6.978;2023-08-17T12:02:29;10.10;;;7.88;;
20824;SDS011;10573;50.936;6.978;2023-08-17T12:04:55;13.13;;;8.40;;
20824;SDS011;10573;50.936;6.978;2023-08-17T12:07:23;9.75;;;8.18;;
20824;SDS011;10573;50.936;6.978;2023-08-17T12:09:49;12.47;;;7.90;;
20824;SDS011;10573;50.936;6.978;2023-08-17T12:12:21;11.15;;;8.30;;
20824;SDS011;10573;50.936;6.978;2023-08-17T12:14:48;9.30;;;7.85;;
20824;SDS011;10573;50.936;6.978;2023-08-17T12:17:14;10.47;;;8.00;;
20824;SDS011;10573;50.936;6.978;2023-08-17T12:19:43;10.25;;;7.32;;
20824;SDS011;10573;50.936;6.978;2023-08-17T12:22:10;11.87;;;7.50;;
20824;SDS011;10573;50.936;6.978;2023-08-17T12:24:38;8.88;;;7.30;;
20824;SDS011;10573;50.936;6.978;2023-08-17T12:27:04;9.80;;;6.72;;
20824;SDS011;10573;50.936;6.978;2023-08-17T12:29:30;9.23;;;6.72;;
20824;SDS011;10573;50.936;6.978;2023-08-17T12:32:00;8.67;;;6.23;;
20824;SDS011;10573;50.936;6.978;2023-08-17T12:34:27;9.70;;;8.40;;
20824;SDS011;10573;50.936;6.978;2023-08-17T12:36:52;11.63;;;7.97;;
20824;SDS011;10573;50.936;6.978;2023-08-17T12:39:18;9.65;;;7.15;;
20824;SDS011;10573;50.936;6.978;2023-08-17T12:41:43;10.77;;;7.63;;
20824;SDS011;10573;50.936;6.978;2023-08-17T12:44:09;9.27;;;7.00;;
20824;SDS011;10573;50.936;6.978;2023-08-17T12:46:38;10.40;;;7.40;;
20824;SDS011;10573;50.936;6.978;2023-08-17T12:49:06;12.02;;;7.72;;
20824;SDS011;10573;50.936;6.978;2023-08-17T12:51:32;9.20;;;7.13;;
20824;SDS011;10573;50.936;6.978;2023-08-17T12:53:58;10.57;;;7.47;;
20824;SDS011;10573;50.936;6.978;2023-08-17T12:56:23;11.20;;;8.57;;
20824;SDS011;10573;50.936;6.978;2023-08-17T12:58:48;11.87;;;8.03;;
20824;SDS011;10573;50.936;6.978;2023-08-17T13:01:14;11.00;;;7.90;;
20824;SDS011;10573;50.936;6.978;2023-08-17T13:03:39;10.10;;;9.10;;
20824;SDS011;10573;50.936;6.978;2023-08-17T13:06:05;9.70;;;8.53;;
20824;SDS011;10573;50.936;6.978;2023-08-17T13:08:30;13.17;;;8.63;;
20824;SDS011;10573;50.936;6.978;2023-08-17T13:10:56;13.38;;;9.75;;
20824;SDS011;10573;50.936;6.978;2023-08-17T13:13:21;12.13;;;9.27;;
20824;SDS011;10573;50.936;6.978;2023-08-17T13:15:47;16.90;;;10.50;;
20824;SDS011;10573;50.936;6.978;2023-08-17T13:18:12;17.10;;;11.77;;
20824;SDS011;10573;50.936;6.978;2023-08-17T13:20:38;15.10;;;10.50;;
20824;SDS011;10573;50.936;6.978;2023-08-17T13:23:05;15.03;;;10.73;;
20824;SDS011;10573;50.936;6.978;2023-08-17T13:25:30;13.95;;;9.77;;
20824;SDS011;10573;50.936;6.978;2023-08-17T13:27:56;12.63;;;9.87;;
20824;SDS011;10573;50.936;6.978;2023-08-17T13:30:21;14.77;;;10.67;;
20824;SDS011;10573;50.936;6.978;2023-08-17T13:32:47;15.43;;;10.73;;
20824;SDS011;10573;50.936;6.978;2023-08-17T13:35:13;17.17;;;10.43;;
20824;SDS011;10573;50.936;6.978;2023-08-17T13:37:39;14.73;;;10.15;;
20824;SDS011;10573;50.936;6.978;2023-08-17T13:40:05;11.35;;;9.30;;
20824;SDS011;10573;50.936;6.978;2023-08-17T13:42:31;14.02;;;9.70;;
20824;SDS011;10573;50.936;6.978;2023-08-17T13:44:57;13.67;;;9.93;;
20824;SDS011;10573;50.936;6.978;2023-08-17T13:47:22;13.43;;;9.47;;
20824;SDS011;10573;50.936;6.978;2023-08-17T13:49:47;12.77;;;9.27;;
20824;SDS011;10573;50.936;6.978;2023-08-17T13:52:13;13.13;;;9.80;;
20824;SDS011;10573;50.936;6.978;2023-08-17T13:54:38;13.45;;;10.23;;
20824;SDS011;10573;50.936;6.978;2023-08-17T13:57:04;13.55;;;9.80;;
20824;SDS011;10573;50.936;6.978;2023-08-17T13:59:29;14.55;;;11.30;;
20824;SDS011;10573;50.936;6.978;2023-08-17T14:01:55;14.47;;;10.23;;
20824;SDS011;10573;50.936;6.978;2023-08-17T14:04:21;14.70;;;9.93;;
20824;SDS011;10573;50.936;6.978;2023-08-17T14:06:46;14.03;;;10.87;;
20824;SDS011;10573;50.936;6.978;2023-08-17T14:09:12;13.73;;;10.00;;
20824;SDS011;10573;50.936;6.978;2023-08-17T14:11:37;13.90;;;9.37;;
20824;SDS011;10573;50.936;6.978;2023-08-17T14:14:02;11.02;;;8.38;;
20824;SDS011;10573;50.936;6.978;2023-08-17T14:16:28;13.30;;;8.45;;
20824;SDS011;10573;50.936;6.978;2023-08-17T14:18:55;11.88;;;8.93;;
20824;SDS011;10573;50.936;6.978;2023-08-17T14:21:20;12.73;;;9.13;;
20824;SDS011;10573;50.936;6.978;2023-08-17T14:23:45;9.47;;;7.53;;
20824;SDS011;10573;50.936;6.978;2023-08-17T14:26:11;11.65;;;8.32;;
20824;SDS011;10573;50.936;6.978;2023-08-17T14:28:37;12.07;;;8.23;;
20824;SDS011;10573;50.936;6.978;2023-08-17T14:31:02;8.90;;;7.50;;
20824;SDS011;10573;50.936;6.978;2023-08-17T14:33:27;10.67;;;7.87;;
20824;SDS011;10573;50.936;6.978;2023-08-17T14:35:53;8.80;;;6.37;;
20824;SDS011;10573;50.936;6.978;2023-08-17T14:38:18;8.70;;;7.23;;
20824;SDS011;10573;50.936;6.978;2023-08-17T14:40:44;8.83;;;7.27;;
20824;SDS011;10573;50.936;6.978;2023-08-17T14:43:11;8.23;;;6.63;;
20824;SDS011;10573;50.936;6.978;2023-08-17T14:45:39;8.68;;;6.82;;
20824;SDS011;10573;50.936;6.978;2023-08-17T14:48:05;7.27;;;6.10;;
20824;SDS011;10573;50.936;6.978;2023-08-17T14:50:31;7.47;;;6.25;;